Time;durP1;ratioP1;P1;durP2;ratioP2;P2;SDS_P1;SDS_P2;PMS_P1;PMS_P2;Temp;Humidity;BMP_temperature;BMP_pressure;BME280_temperature;BME280_humidity;BME280_pressure;Samples;Min_cycle;Max_cycle;Signal;HPM_P1;HPM_P2
2023/04/13 00:01:28;;;;;;;2.40;1.30;;;;;;;;;;5064286;28;20291;-59
2023/04/13 00:03:53;;;;;;;2.50;1.00;;;;;;;;;;5061681;28;20298;-59
2023/04/13 00:06:21;;;;;;;1.53;0.87;;;;;;;;;;5054084;28;20104;-60
2023/04/13 00:08:46;;;;;;;1.40;0.70;;;;;;;;;;5067344;28;20341;-59
2023/04/13 00:11:12;;;;;;;3.05;0.98;;;;;;;;;;5061690;28;20049;-60
2023/04/13 00:13:41;;;;;;;1.70;1.10;;;;;;;;;;5066064;28;20038;-59
2023/04/13 00:16:09;;;;;;;1.70;0.93;;;;;;;;;;5066811;28;20286;-60
2023/04/13 00:18:35;;;;;;;1.67;0.90;;;;;;;;;;5067261;28;20044;-59
2023/04/13 00:21:00;;;;;;;1.50;0.80;;;;;;;;;;5062531;28;20044;-59
2023/04/13 00:23:25;;;;;;;1.80;0.90;;;;;;;;;;5056712;28;20570;-58
2023/04/13 00:25:51;;;;;;;1.90;0.85;;;;;;;;;;5062780;28;20658;-59
2023/04/13 00:28:17;;;;;;;1.53;0.90;;;;;;;;;;5061289;28;20052;-59
2023/04/13 00:30:42;;;;;;;1.98;0.90;;;;;;;;;;5046312;28;20299;-59
2023/04/13 00:33:08;;;;;;;1.60;1.00;;;;;;;;;;5067538;28;20511;-59
2023/04/13 00:35:33;;;;;;;1.50;0.90;;;;;;;;;;5067246;28;20033;-59
2023/04/13 00:38:01;;;;;;;1.80;0.75;;;;;;;;;;5066663;28;20377;-58
2023/04/13 00:40:26;;;;;;;2.25;1.15;;;;;;;;;;5063832;28;20105;-58
2023/04/13 00:42:52;;;;;;;2.67;0.80;;;;;;;;;;5060238;28;20139;-59
2023/04/13 00:45:17;;;;;;;1.42;0.70;;;;;;;;;;5058955;28;20033;-59
2023/04/13 00:47:46;;;;;;;1.98;0.90;;;;;;;;;;5065931;28;20032;-60
2023/04/13 00:50:12;;;;;;;1.70;1.00;;;;;;;;;;5048455;28;20158;-60
2023/04/13 00:52:37;;;;;;;2.47;1.35;;;;;;;;;;5066756;28;20189;-60
2023/04/13 00:55:03;;;;;;;1.67;0.90;;;;;;;;;;5047121;28;20529;-59
2023/04/13 00:57:28;;;;;;;2.25;0.90;;;;;;;;;;5041769;28;20492;-59
2023/04/13 00:59:54;;;;;;;2.47;1.13;;;;;;;;;;5066418;28;20487;-59
2023/04/13 01:02:24;;;;;;;1.95;0.85;;;;;;;;;;5067056;28;20343;-60
2023/04/13 01:04:49;;;;;;;1.67;0.88;;;;;;;;;;5032899;28;20033;-59
2023/04/13 01:07:40;;;;;;;1.77;0.95;;;;;;;;;;5063637;28;20036;-59
2023/04/13 01:10:08;;;;;;;2.05;0.80;;;;;;;;;;5034822;28;20061;-59
2023/04/13 01:12:37;;;;;;;1.40;0.70;;;;;;;;;;5045044;28;20842;-59
2023/04/13 01:15:13;;;;;;;1.30;0.73;;;;;;;;;;5048981;28;20127;-60
2023/04/13 01:17:39;;;;;;;1.95;0.90;;;;;;;;;;5031008;28;20303;-59
2023/04/13 01:20:14;;;;;;;1.60;0.80;;;;;;;;;;5066740;28;20047;-60
2023/04/13 01:23:00;;;;;;;1.90;0.80;;;;;;;;;;5066195;28;20738;-59
2023/04/13 01:25:30;;;;;;;2.08;1.00;;;;;;;;;;5064858;28;20550;-59
2023/04/13 01:28:04;;;;;;;2.67;1.13;;;;;;;;;;5066416;28;20048;-59
2023/04/13 01:30:31;;;;;;;2.38;0.90;;;;;;;;;;5048018;28;20090;-59
2023/04/13 01:32:57;;;;;;;1.83;1.10;;;;;;;;;;5048756;28;20567;-60
2023/04/13 01:35:22;;;;;;;2.08;0.93;;;;;;;;;;5066150;28;20150;-59
2023/04/13 01:37:49;;;;;;;1.98;1.00;;;;;;;;;;5059246;28;20075;-60
2023/04/13 01:40:14;;;;;;;1.85;1.17;;;;;;;;;;5063607;28;20047;-59
2023/04/13 01:42:40;;;;;;;2.67;1.07;;;;;;;;;;5066325;28;20045;-59
2023/04/13 01:45:09;;;;;;;1.65;0.80;;;;;;;;;;5057241;28;20283;-59
2023/04/13 01:47:34;;;;;;;3.45;1.10;;;;;;;;;;5019228;28;20061;-59
2023/04/13 01:50:02;;;;;;;1.80;0.90;;;;;;;;;;5041643;28;20060;-59
2023/04/13 01:52:28;;;;;;;1.65;0.90;;;;;;;;;;5039302;28;20046;-60
2023/04/13 01:54:55;;;;;;;1.77;1.03;;;;;;;;;;5025285;28;20036;-60
2023/04/13 01:57:21;;;;;;;1.50;0.82;;;;;;;;;;5065633;28;20040;-59
2023/04/13 01:59:46;;;;;;;2.65;0.93;;;;;;;;;;5065244;28;20041;-59
2023/04/13 02:02:15;;;;;;;2.17;1.03;;;;;;;;;;5066273;28;20149;-60
2023/04/13 02:04:40;;;;;;;1.98;1.00;;;;;;;;;;5060956;28;20286;-60
2023/04/13 02:07:05;;;;;;;1.70;1.20;;;;;;;;;;5029740;28;20116;-59
2023/04/13 02:09:31;;;;;;;1.87;1.03;;;;;;;;;;5063885;28;20706;-59
2023/04/13 02:11:56;;;;;;;1.57;0.90;;;;;;;;;;5047621;28;20290;-60
2023/04/13 02:14:21;;;;;;;2.30;1.00;;;;;;;;;;5046949;28;20267;-59
2023/04/13 02:16:47;;;;;;;2.03;0.90;;;;;;;;;;5064773;28;20687;-59
2023/04/13 02:19:13;;;;;;;1.90;0.90;;;;;;;;;;5053554;28;20286;-60
2023/04/13 02:21:40;;;;;;;2.05;0.95;;;;;;;;;;5065710;28;20101;-60
2023/04/13 02:24:06;;;;;;;1.88;0.95;;;;;;;;;;5053120;28;20049;-60
2023/04/13 02:26:32;;;;;;;1.80;1.00;;;;;;;;;;5046908;28;20035;-58
2023/04/13 02:28:57;;;;;;;1.88;1.00;;;;;;;;;;5063741;28;20039;-60
2023/04/13 02:31:23;;;;;;;1.70;1.00;;;;;;;;;;5047619;28;20876;-60
2023/04/13 02:33:48;;;;;;;1.73;0.98;;;;;;;;;;5064700;28;20046;-60
2023/04/13 02:36:16;;;;;;;3.13;1.08;;;;;;;;;;5045608;28;20850;-60
2023/04/13 02:38:42;;;;;;;2.15;1.10;;;;;;;;;;5052435;28;20059;-59
2023/04/13 02:41:07;;;;;;;1.95;0.90;;;;;;;;;;5045174;28;20041;-59
2023/04/13 02:43:33;;;;;;;1.83;1.23;;;;;;;;;;5057754;28;20036;-60
2023/04/13 02:45:58;;;;;;;2.03;1.00;;;;;;;;;;5056310;28;20119;-60
2023/04/13 02:48:24;;;;;;;2.20;1.40;;;;;;;;;;5058211;28;20052;-59
2023/04/13 02:50:50;;;;;;;2.40;0.95;;;;;;;;;;5046850;28;20059;-60
2023/04/13 02:53:16;;;;;;;1.75;1.00;;;;;;;;;;5053838;28;20033;-59
2023/04/13 02:55:42;;;;;;;1.55;1.15;;;;;;;;;;5064715;28;20029;-60
2023/04/13 02:58:07;;;;;;;2.30;1.20;;;;;;;;;;5062072;28;20036;-60
2023/04/13 03:00:32;;;;;;;1.88;0.90;;;;;;;;;;5046596;28;20075;-59
2023/04/13 03:02:58;;;;;;;2.97;1.20;;;;;;;;;;5046422;28;20016;-60
2023/04/13 03:05:23;;;;;;;1.73;0.90;;;;;;;;;;5064828;28;20029;-60
2023/04/13 03:07:48;;;;;;;2.60;1.38;;;;;;;;;;5036043;28;20486;-59
2023/04/13 03:10:13;;;;;;;3.50;1.10;;;;;;;;;;5063648;28;20040;-59
2023/04/13 03:12:39;;;;;;;2.22;1.08;;;;;;;;;;5062545;28;20295;-60
2023/04/13 03:15:09;;;;;;;2.37;1.30;;;;;;;;;;5064804;28;20495;-60
2023/04/13 03:17:34;;;;;;;2.40;1.10;;;;;;;;;;5063956;28;20346;-59
2023/04/13 03:20:00;;;;;;;2.08;1.08;;;;;;;;;;5060497;28;20041;-60
2023/04/13 03:22:29;;;;;;;3.55;1.30;;;;;;;;;;5051032;28;20056;-60
2023/04/13 03:24:54;;;;;;;4.22;1.20;;;;;;;;;;5050640;28;20056;-59
2023/04/13 03:27:21;;;;;;;1.73;1.10;;;;;;;;;;5049013;28;20048;-60
2023/04/13 03:29:46;;;;;;;2.63;0.95;;;;;;;;;;5048483;28;20862;-60
2023/04/13 03:32:12;;;;;;;2.40;1.27;;;;;;;;;;5050831;28;20051;-59
2023/04/13 03:34:42;;;;;;;1.90;1.10;;;;;;;;;;5048465;28;20823;-59
2023/04/13 03:37:09;;;;;;;2.70;1.15;;;;;;;;;;5051361;28;20372;-60
2023/04/13 03:39:35;;;;;;;2.83;1.10;;;;;;;;;;5038442;28;20090;-60
2023/04/13 03:42:01;;;;;;;1.83;1.10;;;;;;;;;;5050504;28;20033;-60
2023/04/13 03:44:26;;;;;;;1.60;1.00;;;;;;;;;;5049535;28;20067;-59
2023/04/13 03:46:51;;;;;;;1.43;0.87;;;;;;;;;;5038608;28;20595;-60
2023/04/13 03:49:17;;;;;;;2.00;1.10;;;;;;;;;;5038306;28;20668;-60
2023/04/13 03:51:42;;;;;;;2.10;1.05;;;;;;;;;;5038029;28;20308;-60
2023/04/13 03:54:08;;;;;;;1.87;1.13;;;;;;;;;;5049845;28;20036;-59
2023/04/13 03:56:33;;;;;;;2.72;1.27;;;;;;;;;;5038293;28;20303;-60
2023/04/13 03:58:58;;;;;;;2.38;1.08;;;;;;;;;;5048696;28;20569;-60
2023/04/13 04:01:24;;;;;;;2.65;1.20;;;;;;;;;;5050223;28;20055;-60
2023/04/13 04:03:49;;;;;;;2.03;1.20;;;;;;;;;;5049760;28;20482;-59
2023/04/13 04:06:14;;;;;;;2.28;1.38;;;;;;;;;;5048591;28;20305;-59
2023/04/13 04:08:40;;;;;;;2.60;1.23;;;;;;;;;;5049514;28;20040;-59
2023/04/13 04:11:05;;;;;;;2.10;1.10;;;;;;;;;;5049825;28;20306;-59
2023/04/13 04:13:31;;;;;;;2.50;1.10;;;;;;;;;;5046435;28;20067;-59
2023/04/13 04:15:57;;;;;;;2.38;1.10;;;;;;;;;;5030610;28;21137;-59
2023/04/13 04:18:22;;;;;;;2.65;1.30;;;;;;;;;;5046939;28;20033;-58
2023/04/13 04:20:47;;;;;;;2.67;1.20;;;;;;;;;;5047637;28;20029;-58
2023/04/13 04:23:14;;;;;;;1.87;1.00;;;;;;;;;;5049160;28;20557;-59
2023/04/13 04:25:39;;;;;;;2.47;1.08;;;;;;;;;;5045981;28;20136;-58
2023/04/13 04:28:05;;;;;;;2.03;1.00;;;;;;;;;;5048199;28;20556;-60
2023/04/13 04:30:32;;;;;;;1.80;1.13;;;;;;;;;;5048126;28;20064;-59
2023/04/13 04:32:58;;;;;;;1.95;1.02;;;;;;;;;;5046949;28;20135;-60
2023/04/13 04:35:25;;;;;;;2.22;1.13;;;;;;;;;;5048807;28;20124;-59
2023/04/13 04:37:54;;;;;;;3.00;0.93;;;;;;;;;;5051179;28;20045;-60
2023/04/13 04:40:19;;;;;;;2.80;1.30;;;;;;;;;;5051065;28;20174;-59
2023/04/13 04:42:44;;;;;;;1.80;1.00;;;;;;;;;;5035229;28;20573;-59
2023/04/13 04:45:10;;;;;;;2.30;1.05;;;;;;;;;;5040661;28;20574;-59
2023/04/13 04:47:42;;;;;;;1.83;1.00;;;;;;;;;;5050597;28;20029;-60
2023/04/13 04:50:11;;;;;;;2.30;1.13;;;;;;;;;;5050510;28;20526;-58
2023/04/13 04:52:37;;;;;;;2.50;1.20;;;;;;;;;;5039459;28;20044;-59
2023/04/13 04:55:05;;;;;;;2.58;1.02;;;;;;;;;;5051061;28;20291;-60
2023/04/13 04:57:30;;;;;;;2.40;0.90;;;;;;;;;;5039412;28;20048;-59
2023/04/13 04:59:55;;;;;;;1.23;0.90;;;;;;;;;;5050438;28;20043;-59
2023/04/13 05:02:21;;;;;;;2.83;1.17;;;;;;;;;;5039220;28;20494;-59
2023/04/13 05:04:46;;;;;;;2.85;1.13;;;;;;;;;;5049031;28;20326;-60
2023/04/13 05:07:16;;;;;;;3.80;1.10;;;;;;;;;;5051242;28;20497;-58
2023/04/13 05:09:42;;;;;;;1.92;1.10;;;;;;;;;;5039806;28;20113;-59
2023/04/13 05:12:08;;;;;;;2.08;1.13;;;;;;;;;;5050507;28;20194;-60
2023/04/13 05:14:33;;;;;;;2.90;1.20;;;;;;;;;;5033269;28;20076;-59
2023/04/13 05:16:59;;;;;;;1.87;1.03;;;;;;;;;;5034304;28;20044;-60
2023/04/13 05:19:25;;;;;;;1.98;1.00;;;;;;;;;;5038928;28;20105;-59
2023/04/13 05:21:50;;;;;;;2.25;1.10;;;;;;;;;;5033892;28;20466;-59
2023/04/13 05:24:15;;;;;;;1.70;1.10;;;;;;;;;;5051619;28;20124;-59
2023/04/13 05:26:41;;;;;;;2.63;1.23;;;;;;;;;;5050570;28;20424;-60
2023/04/13 05:29:07;;;;;;;2.90;1.15;;;;;;;;;;5050265;28;20037;-60
2023/04/13 05:31:32;;;;;;;2.30;0.90;;;;;;;;;;5049731;28;20105;-59
2023/04/13 05:33:57;;;;;;;1.50;0.80;;;;;;;;;;5048467;28;20373;-60
2023/04/13 05:36:23;;;;;;;2.03;1.07;;;;;;;;;;5050893;28;20348;-60
2023/04/13 05:38:48;;;;;;;2.23;1.00;;;;;;;;;;5034812;28;20283;-59
2023/04/13 05:41:13;;;;;;;2.17;1.30;;;;;;;;;;5049230;28;20385;-58
2023/04/13 05:43:38;;;;;;;1.70;1.07;;;;;;;;;;5050053;28;20079;-59
2023/04/13 05:46:05;;;;;;;2.63;1.10;;;;;;;;;;5049989;28;20844;-58
2023/04/13 05:48:30;;;;;;;2.08;1.10;;;;;;;;;;5050644;28;20064;-59
2023/04/13 05:50:58;;;;;;;3.10;1.00;;;;;;;;;;5050297;28;20201;-59
2023/04/13 05:53:24;;;;;;;2.78;1.23;;;;;;;;;;5051168;28;20045;-59
2023/04/13 05:55:49;;;;;;;2.17;0.90;;;;;;;;;;5033910;28;20052;-58
2023/04/13 05:58:17;;;;;;;8.20;2.30;;;;;;;;;;5038231;28;20059;-58
2023/04/13 06:00:42;;;;;;;6.30;1.27;;;;;;;;;;5048655;28;20098;-59
2023/04/13 06:03:08;;;;;;;5.93;1.00;;;;;;;;;;5049242;28;20044;-59
2023/04/13 06:05:35;;;;;;;4.37;1.23;;;;;;;;;;5049673;28;20644;-59
2023/04/13 06:08:01;;;;;;;3.30;1.20;;;;;;;;;;5038128;28;20295;-59
2023/04/13 06:10:26;;;;;;;3.72;1.20;;;;;;;;;;5032716;28;20048;-59
2023/04/13 06:12:52;;;;;;;2.53;1.25;;;;;;;;;;5049519;28;20101;-59
2023/04/13 06:15:18;;;;;;;3.35;1.10;;;;;;;;;;5033270;28;20041;-59
2023/04/13 06:17:43;;;;;;;2.75;1.20;;;;;;;;;;5031839;28;20044;-59
2023/04/13 06:20:11;;;;;;;2.60;1.47;;;;;;;;;;5048348;28;20707;-60
2023/04/13 06:22:37;;;;;;;2.92;1.08;;;;;;;;;;5017463;28;20290;-59
2023/04/13 06:25:02;;;;;;;2.10;1.15;;;;;;;;;;5050504;28;20549;-60
2023/04/13 06:27:28;;;;;;;2.53;1.30;;;;;;;;;;5050025;28;20040;-59
2023/04/13 06:29:54;;;;;;;2.17;1.10;;;;;;;;;;5048659;28;20036;-59
2023/04/13 06:32:19;;;;;;;1.92;1.08;;;;;;;;;;5048510;28;20505;-60
2023/04/13 06:34:44;;;;;;;3.00;1.38;;;;;;;;;;5050426;28;20799;-59
2023/04/13 06:37:10;;;;;;;2.20;1.30;;;;;;;;;;5038351;28;20036;-58
2023/04/13 06:39:36;;;;;;;2.10;1.23;;;;;;;;;;5032307;28;20303;-59
2023/04/13 06:42:02;;;;;;;2.08;1.00;;;;;;;;;;5049660;28;20703;-59
2023/04/13 06:44:27;;;;;;;2.50;1.05;;;;;;;;;;5031361;28;20039;-60
2023/04/13 06:46:52;;;;;;;3.60;1.20;;;;;;;;;;5049306;28;20716;-59
2023/04/13 06:49:18;;;;;;;2.70;0.98;;;;;;;;;;5049118;28;20025;-59
2023/04/13 06:51:43;;;;;;;1.63;1.10;;;;;;;;;;5058985;28;20075;-59
2023/04/13 06:54:08;;;;;;;2.07;1.10;;;;;;;;;;5013803;28;20024;-59
2023/04/13 06:56:33;;;;;;;2.70;0.90;;;;;;;;;;5044406;28;20763;-59
2023/04/13 06:59:01;;;;;;;2.93;1.10;;;;;;;;;;5059184;28;20066;-59
2023/04/13 07:01:26;;;;;;;2.90;1.30;;;;;;;;;;5052638;28;20304;-59
2023/04/13 07:03:52;;;;;;;2.40;1.40;;;;;;;;;;5062888;28;20038;-59
2023/04/13 07:06:17;;;;;;;1.90;0.98;;;;;;;;;;5063375;28;20012;-59
2023/04/13 07:08:42;;;;;;;2.40;1.00;;;;;;;;;;5061525;28;21022;-60
2023/04/13 07:11:08;;;;;;;1.43;0.90;;;;;;;;;;5044174;28;20376;-60
2023/04/13 07:13:34;;;;;;;1.75;1.23;;;;;;;;;;5044793;28;20263;-60
2023/04/13 07:15:59;;;;;;;2.17;1.10;;;;;;;;;;5063217;28;20130;-60
2023/04/13 07:18:24;;;;;;;2.33;1.20;;;;;;;;;;5058654;28;20267;-60
2023/04/13 07:20:50;;;;;;;2.43;1.17;;;;;;;;;;5061571;28;20025;-60
2023/04/13 07:23:15;;;;;;;2.45;1.00;;;;;;;;;;5041435;28;20072;-60
2023/04/13 07:25:41;;;;;;;2.40;0.90;;;;;;;;;;5024294;28;20554;-60
2023/04/13 07:28:06;;;;;;;2.38;1.10;;;;;;;;;;5042875;28;20259;-59
2023/04/13 07:30:31;;;;;;;2.00;1.10;;;;;;;;;;5037320;28;20426;-60
2023/04/13 07:32:56;;;;;;;2.07;1.20;;;;;;;;;;5042507;28;20255;-59
2023/04/13 07:35:22;;;;;;;2.03;1.00;;;;;;;;;;5043078;28;20021;-59
2023/04/13 07:37:48;;;;;;;2.03;1.20;;;;;;;;;;5042567;28;20481;-59
2023/04/13 07:40:14;;;;;;;2.20;1.33;;;;;;;;;;5043171;28;20360;-59
2023/04/13 07:42:39;;;;;;;1.88;1.13;;;;;;;;;;5031681;28;20071;-59
2023/04/13 07:45:05;;;;;;;1.97;1.10;;;;;;;;;;5041967;28;20031;-59
2023/04/13 07:47:31;;;;;;;2.13;1.00;;;;;;;;;;5040181;28;20025;-60
2023/04/13 07:49:56;;;;;;;1.50;0.90;;;;;;;;;;5043307;28;20017;-59
2023/04/13 07:52:21;;;;;;;2.00;1.10;;;;;;;;;;5042191;28;20055;-59
2023/04/13 07:54:47;;;;;;;2.33;1.03;;;;;;;;;;5036658;28;20161;-59
2023/04/13 07:57:12;;;;;;;2.20;1.23;;;;;;;;;;5042806;28;20021;-62
2023/04/13 07:59:37;;;;;;;2.03;0.90;;;;;;;;;;5040234;28;20152;-60
2023/04/13 08:02:03;;;;;;;3.03;1.10;;;;;;;;;;5038268;28;20278;-60
2023/04/13 08:04:28;;;;;;;1.98;1.17;;;;;;;;;;5032035;28;20779;-60
2023/04/13 08:06:53;;;;;;;2.50;1.27;;;;;;;;;;5042812;28;21003;-59
2023/04/13 08:09:19;;;;;;;2.40;1.10;;;;;;;;;;5042213;28;20031;-60
2023/04/13 08:11:44;;;;;;;3.00;1.23;;;;;;;;;;5045123;28;20287;-59
2023/04/13 08:14:10;;;;;;;2.10;1.23;;;;;;;;;;5045779;28;20323;-59
2023/04/13 08:16:36;;;;;;;2.03;1.10;;;;;;;;;;5046466;28;20517;-59
2023/04/13 08:19:01;;;;;;;2.10;1.17;;;;;;;;;;5046606;28;20033;-59
2023/04/13 08:21:27;;;;;;;2.70;1.30;;;;;;;;;;5044895;28;20083;-59
2023/04/13 08:23:53;;;;;;;1.83;1.20;;;;;;;;;;5060167;28;20434;-60
2023/04/13 08:26:18;;;;;;;1.70;1.17;;;;;;;;;;5065804;28;20047;-59
2023/04/13 08:28:44;;;;;;;2.25;1.00;;;;;;;;;;5048368;28;20506;-59
2023/04/13 08:31:09;;;;;;;2.40;1.33;;;;;;;;;;5064946;28;20428;-59
2023/04/13 08:33:34;;;;;;;2.40;1.27;;;;;;;;;;5066024;28;20514;-60
2023/04/13 08:36:00;;;;;;;2.20;1.10;;;;;;;;;;5065902;28;20302;-59
2023/04/13 08:38:25;;;;;;;2.78;1.20;;;;;;;;;;5046453;28;20286;-59
2023/04/13 08:40:51;;;;;;;2.00;1.00;;;;;;;;;;5065300;28;20036;-59
2023/04/13 08:43:17;;;;;;;3.95;1.20;;;;;;;;;;5065777;28;20476;-60
2023/04/13 08:45:42;;;;;;;3.15;1.40;;;;;;;;;;5058969;28;20041;-59
2023/04/13 08:48:10;;;;;;;3.28;1.30;;;;;;;;;;5066171;28;20029;-59
2023/04/13 08:50:35;;;;;;;2.40;1.30;;;;;;;;;;5061213;28;20048;-60
2023/04/13 08:53:02;;;;;;;2.25;1.33;;;;;;;;;;5054124;28;20101;-59
2023/04/13 08:55:28;;;;;;;3.03;1.42;;;;;;;;;;5047880;28;20036;-60
2023/04/13 08:57:53;;;;;;;2.13;1.10;;;;;;;;;;5064615;28;20513;-59
2023/04/13 09:00:20;;;;;;;4.38;1.27;;;;;;;;;;5063600;28;20139;-60
2023/04/13 09:02:49;;;;;;;2.78;1.30;;;;;;;;;;5050258;28;20040;-59
2023/04/13 09:05:15;;;;;;;2.28;1.23;;;;;;;;;;5050478;28;20114;-60
2023/04/13 09:07:40;;;;;;;2.88;1.30;;;;;;;;;;5052167;28;20451;-59
2023/04/13 09:10:08;;;;;;;2.80;1.20;;;;;;;;;;5054691;28;20032;-60
2023/04/13 09:12:33;;;;;;;2.20;1.20;;;;;;;;;;5049528;28;20029;-60
2023/04/13 09:14:59;;;;;;;3.58;1.23;;;;;;;;;;5065229;28;20578;-60
2023/04/13 09:17:28;;;;;;;2.30;1.23;;;;;;;;;;5042070;28;20429;-60
2023/04/13 09:19:56;;;;;;;2.40;1.13;;;;;;;;;;5051570;28;20060;-63
2023/04/13 09:22:21;;;;;;;3.22;1.35;;;;;;;;;;5049218;28;20059;-60
2023/04/13 09:24:47;;;;;;;2.70;1.20;;;;;;;;;;5053004;28;20037;-59
2023/04/13 09:27:19;;;;;;;3.33;1.45;;;;;;;;;;5028996;28;20029;-60
2023/04/13 09:29:51;;;;;;;2.25;1.23;;;;;;;;;;5046850;28;20089;-60
2023/04/13 09:32:20;;;;;;;2.92;1.33;;;;;;;;;;5044858;28;20053;-59
2023/04/13 09:34:55;;;;;;;2.17;1.20;;;;;;;;;;5051793;28;20048;-59
2023/04/13 09:37:21;;;;;;;2.70;1.08;;;;;;;;;;5032204;28;20040;-60
2023/04/13 09:39:46;;;;;;;3.23;1.10;;;;;;;;;;5022949;28;20043;-60
2023/04/13 09:42:13;;;;;;;2.40;1.13;;;;;;;;;;5050801;28;20123;-59
2023/04/13 09:44:39;;;;;;;1.88;0.93;;;;;;;;;;5049800;28;20107;-59
2023/04/13 09:47:06;;;;;;;2.88;1.20;;;;;;;;;;5048991;28;20513;-59
2023/04/13 09:49:37;;;;;;;1.80;1.15;;;;;;;;;;5049710;28;20045;-61
2023/04/13 09:52:04;;;;;;;2.60;1.00;;;;;;;;;;5048461;28;20052;-61
2023/04/13 09:54:29;;;;;;;4.53;1.88;;;;;;;;;;5050013;28;20075;-60
2023/04/13 09:56:56;;;;;;;2.95;1.40;;;;;;;;;;5049926;28;20064;-60
2023/04/13 09:59:22;;;;;;;2.47;1.10;;;;;;;;;;5049856;28;20067;-60
2023/04/13 10:01:47;;;;;;;2.50;1.20;;;;;;;;;;5050617;28;20072;-60
2023/04/13 10:04:13;;;;;;;3.35;1.30;;;;;;;;;;5049455;28;20816;-59
2023/04/13 10:06:39;;;;;;;2.72;1.20;;;;;;;;;;5033231;28;20505;-60
2023/04/13 10:09:04;;;;;;;2.97;1.40;;;;;;;;;;5049548;28;20035;-60
2023/04/13 10:11:30;;;;;;;2.58;1.02;;;;;;;;;;5050045;28;20052;-58
2023/04/13 10:13:55;;;;;;;2.38;1.10;;;;;;;;;;5048978;28;20505;-58
2023/04/13 10:16:35;;;;;;;3.28;1.30;;;;;;;;;;5021114;28;20409;-59
2023/04/13 10:19:07;;;;;;;2.67;1.25;;;;;;;;;;5034951;28;20445;-58
2023/04/13 10:21:34;;;;;;;2.28;1.23;;;;;;;;;;5034029;28;20021;-59
2023/04/13 10:24:00;;;;;;;2.03;1.10;;;;;;;;;;5038682;28;20055;-57
2023/04/13 10:26:32;;;;;;;4.47;1.10;;;;;;;;;;5036142;28;20063;-57
2023/04/13 10:28:58;;;;;;;2.78;1.10;;;;;;;;;;5038102;28;20060;-59
2023/04/13 10:31:35;;;;;;;2.30;1.05;;;;;;;;;;5051226;28;20100;-58
2023/04/13 10:34:00;;;;;;;1.48;1.00;;;;;;;;;;5032218;28;20057;-58
2023/04/13 10:36:33;;;;;;;2.37;1.30;;;;;;;;;;5050957;28;20107;-59
2023/04/13 10:38:59;;;;;;;2.00;1.30;;;;;;;;;;5034753;28;20109;-58
2023/04/13 10:41:24;;;;;;;2.17;1.08;;;;;;;;;;5049595;28;20143;-59
2023/04/13 10:44:00;;;;;;;2.47;1.10;;;;;;;;;;5050246;28;20016;-59
2023/04/13 10:46:25;;;;;;;2.83;1.35;;;;;;;;;;5036334;28;20037;-58
2023/04/13 10:48:54;;;;;;;2.73;1.40;;;;;;;;;;5049453;28;20083;-58
2023/04/13 10:51:19;;;;;;;3.95;1.40;;;;;;;;;;5039098;28;21072;-60
2023/04/13 10:53:44;;;;;;;1.63;1.10;;;;;;;;;;5049779;28;20147;-60
2023/04/13 10:56:16;;;;;;;2.17;1.20;;;;;;;;;;5050362;28;20041;-59
2023/04/13 10:58:42;;;;;;;1.80;1.20;;;;;;;;;;5051861;28;20414;-59
2023/04/13 11:01:07;;;;;;;2.08;1.30;;;;;;;;;;5049587;28;20039;-60
2023/04/13 11:03:32;;;;;;;2.28;1.23;;;;;;;;;;5050520;28;20044;-61
2023/04/13 11:05:58;;;;;;;2.23;1.20;;;;;;;;;;5050354;28;20421;-59
2023/04/13 11:08:23;;;;;;;3.10;1.20;;;;;;;;;;5051331;28;20041;-60
2023/04/13 11:10:55;;;;;;;2.25;1.05;;;;;;;;;;5033683;28;20052;-59
2023/04/13 11:13:20;;;;;;;2.20;1.00;;;;;;;;;;5049780;28;20040;-60
2023/04/13 11:15:46;;;;;;;1.98;1.08;;;;;;;;;;5048537;28;20040;-60
2023/04/13 11:18:12;;;;;;;1.90;1.15;;;;;;;;;;5052659;28;20115;-60
2023/04/13 11:20:38;;;;;;;1.65;1.00;;;;;;;;;;5045141;28;20116;-59
2023/04/13 11:23:04;;;;;;;2.92;1.45;;;;;;;;;;5031293;28;20049;-58
2023/04/13 11:25:30;;;;;;;2.97;1.08;;;;;;;;;;5054469;28;20040;-58
2023/04/13 11:27:56;;;;;;;2.10;1.23;;;;;;;;;;5049396;28;20056;-59
2023/04/13 11:30:22;;;;;;;2.33;1.05;;;;;;;;;;5051744;28;20044;-59
2023/04/13 11:32:49;;;;;;;2.17;1.17;;;;;;;;;;5049794;28;20037;-59
2023/04/13 11:35:14;;;;;;;2.15;1.27;;;;;;;;;;5051017;28;20037;-59
2023/04/13 11:37:40;;;;;;;2.03;1.10;;;;;;;;;;5046317;28;20136;-60
2023/04/13 11:40:24;;;;;;;2.25;1.10;;;;;;;;;;5056869;28;20120;-60
2023/04/13 11:42:52;;;;;;;1.90;1.15;;;;;;;;;;5033521;28;20029;-59
2023/04/13 11:45:18;;;;;;;1.58;1.08;;;;;;;;;;5053765;28;20044;-58
2023/04/13 11:47:44;;;;;;;1.73;0.85;;;;;;;;;;5057534;28;20029;-59
2023/04/13 11:50:10;;;;;;;2.33;1.10;;;;;;;;;;5044206;28;20086;-59
2023/04/13 11:52:35;;;;;;;2.10;1.20;;;;;;;;;;5030478;28;20037;-59
2023/04/13 11:55:03;;;;;;;3.23;1.40;;;;;;;;;;5043824;28;20039;-58
2023/04/13 11:57:28;;;;;;;2.13;1.30;;;;;;;;;;5052059;28;20283;-58
2023/04/13 11:59:53;;;;;;;2.20;1.00;;;;;;;;;;5026683;28;20537;-57
2023/04/13 12:02:28;;;;;;;1.88;1.20;;;;;;;;;;5043734;28;20048;-59
2023/04/13 12:04:54;;;;;;;2.00;1.30;;;;;;;;;;5063257;28;20059;-59
2023/04/13 12:07:19;;;;;;;2.45;1.38;;;;;;;;;;5041499;28;20028;-58
2023/04/13 12:09:45;;;;;;;2.15;1.20;;;;;;;;;;5044292;28;20124;-59
2023/04/13 12:12:14;;;;;;;2.50;1.30;;;;;;;;;;5044432;28;20045;-58
2023/04/13 12:14:39;;;;;;;2.42;1.10;;;;;;;;;;5059753;28;20056;-60
2023/04/13 12:17:05;;;;;;;1.80;1.10;;;;;;;;;;5055180;28;20137;-60
2023/04/13 12:19:30;;;;;;;2.28;1.30;;;;;;;;;;5033908;28;20276;-61
2023/04/13 12:21:55;;;;;;;2.17;1.20;;;;;;;;;;5038610;28;20021;-60
2023/04/13 12:24:30;;;;;;;2.17;1.17;;;;;;;;;;5045612;28;20045;-58
2023/04/13 12:26:55;;;;;;;1.77;1.02;;;;;;;;;;5050900;28;20519;-60
2023/04/13 12:29:21;;;;;;;2.73;1.17;;;;;;;;;;5063654;28;20129;-60
2023/04/13 12:31:46;;;;;;;2.13;1.20;;;;;;;;;;5032840;28;20322;-60
2023/04/13 12:34:11;;;;;;;1.58;0.90;;;;;;;;;;5056695;28;20067;-59
2023/04/13 12:36:36;;;;;;;1.53;0.90;;;;;;;;;;5062984;28;20032;-59
2023/04/13 12:39:03;;;;;;;1.90;1.10;;;;;;;;;;5050766;28;20129;-62
2023/04/13 12:41:28;;;;;;;2.00;1.10;;;;;;;;;;5057587;28;20309;-58
2023/04/13 12:43:53;;;;;;;2.30;1.00;;;;;;;;;;5034961;28;20498;-59
2023/04/13 12:46:19;;;;;;;2.67;1.13;;;;;;;;;;5033275;28;20281;-58
2023/04/13 12:48:44;;;;;;;1.85;1.10;;;;;;;;;;5045359;28;20315;-61
2023/04/13 12:51:10;;;;;;;1.98;1.17;;;;;;;;;;5044428;28;20685;-57
2023/04/13 12:53:35;;;;;;;3.10;1.27;;;;;;;;;;5050005;28;20041;-58
2023/04/13 12:56:00;;;;;;;2.27;1.27;;;;;;;;;;5049539;28;20453;-57
2023/04/13 12:58:26;;;;;;;3.53;1.20;;;;;;;;;;5057481;28;20278;-57
2023/04/13 13:00:51;;;;;;;3.87;1.30;;;;;;;;;;5047724;28;20098;-58
2023/04/13 13:03:16;;;;;;;3.00;1.37;;;;;;;;;;5060371;28;20301;-59
2023/04/13 13:05:42;;;;;;;2.60;1.10;;;;;;;;;;5053384;28;20115;-58
2023/04/13 13:08:07;;;;;;;2.28;1.08;;;;;;;;;;5051624;28;20380;-58
2023/04/13 13:10:34;;;;;;;2.92;1.23;;;;;;;;;;5038152;28;20064;-58
2023/04/13 13:13:02;;;;;;;8.82;1.58;;;;;;;;;;5054199;28;20087;-60
2023/04/13 13:17:02;;;;;;;1.65;0.95;;;;;;;;;;5078030;27;20804;-68
2023/04/13 13:19:28;;;;;;;4.17;1.40;;;;;;;;;;5045807;28;20052;-69
2023/04/13 13:21:53;;;;;;;3.70;1.33;;;;;;;;;;5030032;28;20296;-73
2023/04/13 13:24:18;;;;;;;2.90;1.25;;;;;;;;;;5028816;28;20037;-68
2023/04/13 13:26:44;;;;;;;2.53;1.35;;;;;;;;;;5035039;28;20025;-75
2023/04/13 13:29:09;;;;;;;2.97;1.23;;;;;;;;;;5030585;28;20038;-69
2023/04/13 13:31:35;;;;;;;2.50;1.52;;;;;;;;;;5027638;28;20299;-64
2023/04/13 13:34:00;;;;;;;3.22;1.40;;;;;;;;;;5026196;28;20536;-64
2023/04/13 13:36:26;;;;;;;2.60;1.30;;;;;;;;;;5025760;28;20045;-70
2023/04/13 13:38:51;;;;;;;3.78;1.48;;;;;;;;;;5028077;28;20482;-61
2023/04/13 13:41:17;;;;;;;6.10;1.50;;;;;;;;;;5029466;28;20473;-70
2023/04/13 13:43:42;;;;;;;6.28;1.90;;;;;;;;;;5026961;28;20047;-68
2023/04/13 13:46:07;;;;;;;5.03;1.83;;;;;;;;;;5027551;28;20466;-69
2023/04/13 13:48:33;;;;;;;7.68;1.70;;;;;;;;;;5027913;28;20295;-64
2023/04/13 13:50:59;;;;;;;5.85;1.40;;;;;;;;;;5026128;28;20045;-65
2023/04/13 13:53:24;;;;;;;5.85;1.77;;;;;;;;;;5029070;28;20030;-66
2023/04/13 13:55:49;;;;;;;8.65;1.90;;;;;;;;;;5025462;28;20162;-65
2023/04/13 13:58:15;;;;;;;5.30;1.67;;;;;;;;;;5027382;28;20128;-63
2023/04/13 14:00:40;;;;;;;3.25;1.52;;;;;;;;;;5025137;28;20041;-62
2023/04/13 14:03:06;;;;;;;4.40;1.60;;;;;;;;;;5028596;28;20037;-67
2023/04/13 14:05:31;;;;;;;6.03;1.90;;;;;;;;;;5025251;28;20037;-68
2023/04/13 14:07:56;;;;;;;3.70;1.30;;;;;;;;;;5023670;28;20719;-65
2023/04/13 14:10:21;;;;;;;2.83;1.50;;;;;;;;;;5025193;28;20287;-66
2023/04/13 14:12:47;;;;;;;5.37;1.63;;;;;;;;;;5024944;28;20529;-69
2023/04/13 14:15:12;;;;;;;4.35;1.60;;;;;;;;;;5024427;28;20309;-64
2023/04/13 14:17:37;;;;;;;4.07;1.73;;;;;;;;;;5026968;28;20095;-68
2023/04/13 14:20:12;;;;;;;3.88;1.63;;;;;;;;;;5025793;28;20112;-68
2023/04/13 14:22:38;;;;;;;3.67;1.33;;;;;;;;;;5024715;28;20037;-72
2023/04/13 14:25:04;;;;;;;3.03;1.60;;;;;;;;;;5024352;28;20541;-67
2023/04/13 14:27:30;;;;;;;4.45;1.63;;;;;;;;;;5015769;28;20147;-65
2023/04/13 14:29:56;;;;;;;4.32;1.50;;;;;;;;;;5011364;28;20052;-64
2023/04/13 14:32:21;;;;;;;2.75;1.38;;;;;;;;;;5010348;28;20037;-64
2023/04/13 14:34:46;;;;;;;3.72;1.63;;;;;;;;;;5010287;28;20416;-68
2023/04/13 14:37:12;;;;;;;4.45;1.60;;;;;;;;;;5009868;28;20098;-63
2023/04/13 14:39:38;;;;;;;3.85;1.42;;;;;;;;;;5011117;28;20026;-72